sensor_id;sensor_type;location;lat;lon;timestamp;pressure;altitude;pressure_sealevel;temperature;humidity
13367;BME280;6752;52.612;13.630;2022-08-25T00:04:11;101416.20;;;20.11;100.00
13367;BME280;6752;52.612;13.630;2022-08-25T00:09:14;101421.53;;;19.99;100.00
13367;BME280;6752;52.612;13.630;2022-08-25T00:14:19;101416.69;;;20.00;100.00
13367;BME280;6752;52.612;13.630;2022-08-25T00:19:22;101412.53;;;19.97;100.00
13367;BME280;6752;52.612;13.630;2022-08-25T00:24:23;101411.11;;;19.92;100.00
13367;BME280;6752;52.612;13.630;2022-08-25T00:29:25;101405.70;;;19.89;100.00
13367;BME280;6752;52.612;13.630;2022-08-25T00:34:33;101396.58;;;19.91;100.00
13367;BME280;6752;52.612;13.630;2022-08-25T00:39:29;101400.95;;;19.87;100.00
13367;BME280;6752;52.612;13.630;2022-08-25T00:44:31;101413.65;;;19.83;100.00
13367;BME280;6752;52.612;13.630;2022-08-25T00:49:47;101409.80;;;19.86;100.00
13367;BME280;6752;52.612;13.630;2022-08-25T00:54:49;101411.55;;;19.79;100.00
13367;BME280;6752;52.612;13.630;2022-08-25T00:59:47;101400.94;;;19.84;100.00
13367;BME280;6752;52.612;13.630;2022-08-25T01:04:49;101414.72;;;19.77;100.00
13367;BME280;6752;52.612;13.630;2022-08-25T01:09:52;101411.13;;;19.79;100.00
13367;BME280;6752;52.612;13.630;2022-08-25T01:14:54;101413.72;;;19.72;100.00
13367;BME280;6752;52.612;13.630;2022-08-25T01:19:56;101405.93;;;19.66;100.00
13367;BME280;6752;52.612;13.630;2022-08-25T01:25:00;101398.50;;;19.72;100.00
13367;BME280;6752;52.612;13.630;2022-08-25T01:30:01;101399.89;;;19.72;100.00
13367;BME280;6752;52.612;13.630;2022-08-25T01:35:06;101408.62;;;19.61;100.00
13367;BME280;6752;52.612;13.630;2022-08-25T01:40:08;101411.86;;;19.64;100.00
13367;BME280;6752;52.612;13.630;2022-08-25T01:45:11;101408.73;;;19.71;100.00
13367;BME280;6752;52.612;13.630;2022-08-25T01:50:13;101408.59;;;19.72;100.00
13367;BME280;6752;52.612;13.630;2022-08-25T01:55:16;101410.21;;;19.66;100.00
13367;BME280;6752;52.612;13.630;2022-08-25T02:00:18;101407.93;;;19.60;100.00
13367;BME280;6752;52.612;13.630;2022-08-25T02:05:20;101406.53;;;19.57;100.00
13367;BME280;6752;52.612;13.630;2022-08-25T02:10:23;101403.54;;;19.51;100.00
13367;BME280;6752;52.612;13.630;2022-08-25T02:15:25;101406.23;;;19.56;100.00
13367;BME280;6752;52.612;13.630;2022-08-25T02:20:27;101401.32;;;19.50;100.00
13367;BME280;6752;52.612;13.630;2022-08-25T02:25:32;101387.23;;;19.38;100.00
13367;BME280;6752;52.612;13.630;2022-08-25T02:30:35;101386.80;;;19.35;100.00
13367;BME280;6752;52.612;13.630;2022-08-25T02:35:37;101388.27;;;19.43;100.00
13367;BME280;6752;52.612;13.630;2022-08-25T02:40:40;101384.17;;;19.35;100.00
13367;BME280;6752;52.612;13.630;2022-08-25T02:45:42;101383.35;;;19.37;100.00
13367;BME280;6752;52.612;13.630;2022-08-25T02:50:48;101387.34;;;19.35;100.00
13367;BME280;6752;52.612;13.630;2022-08-25T02:55:50;101384.55;;;19.30;100.00
13367;BME280;6752;52.612;13.630;2022-08-25T03:00:52;101378.47;;;19.30;100.00
13367;BME280;6752;52.612;13.630;2022-08-25T03:05:55;101380.36;;;19.25;100.00
13367;BME280;6752;52.612;13.630;2022-08-25T03:10:57;101374.00;;;19.13;100.00
13367;BME280;6752;52.612;13.630;2022-08-25T03:16:00;101369.52;;;19.18;100.00
13367;BME280;6752;52.612;13.630;2022-08-25T03:21:02;101375.17;;;19.17;100.00
13367;BME280;6752;52.612;13.630;2022-08-25T03:26:04;101383.00;;;19.14;100.00
13367;BME280;6752;52.612;13.630;2022-08-25T03:31:25;101376.24;;;19.16;100.00
13367;BME280;6752;52.612;13.630;2022-08-25T03:36:27;101374.00;;;19.13;100.00
13367;BME280;6752;52.612;13.630;2022-08-25T03:41:30;101367.25;;;19.15;100.00
13367;BME280;6752;52.612;13.630;2022-08-25T03:46:36;101364.88;;;19.13;100.00
13367;BME280;6752;52.612;13.630;2022-08-25T03:51:37;101366.59;;;19.03;100.00
13367;BME280;6752;52.612;13.630;2022-08-25T03:56:36;101380.89;;;19.11;100.00
13367;BME280;6752;52.612;13.630;2022-08-25T04:01:39;101386.13;;;19.10;100.00
13367;BME280;6752;52.612;13.630;2022-08-25T04:06:41;101378.77;;;19.18;100.00
13367;BME280;6752;52.612;13.630;2022-08-25T04:11:43;101390.69;;;19.21;100.00
13367;BME280;6752;52.612;13.630;2022-08-25T04:16:46;101386.05;;;19.15;100.00
13367;BME280;6752;52.612;13.630;2022-08-25T04:21:48;101394.75;;;19.16;100.00
13367;BME280;6752;52.612;13.630;2022-08-25T04:26:50;101403.82;;;19.22;100.00
13367;BME280;6752;52.612;13.630;2022-08-25T04:31:53;101404.55;;;19.26;100.00
13367;BME280;6752;52.612;13.630;2022-08-25T04:36:55;101396.19;;;19.34;100.00
13367;BME280;6752;52.612;13.630;2022-08-25T04:41:57;101398.55;;;19.50;100.00
13367;BME280;6752;52.612;13.630;2022-08-25T04:47:03;101406.50;;;19.41;100.00
13367;BME280;6752;52.612;13.630;2022-08-25T04:52:05;101408.23;;;19.50;100.00
13367;BME280;6752;52.612;13.630;2022-08-25T04:57:07;101405.84;;;19.59;100.00
13367;BME280;6752;52.612;13.630;2022-08-25T05:02:09;101405.42;;;19.58;100.00
13367;BME280;6752;52.612;13.630;2022-08-25T05:07:11;101402.27;;;19.61;100.00
13367;BME280;6752;52.612;13.630;2022-08-25T05:12:13;101394.53;;;19.79;100.00
13367;BME280;6752;52.612;13.630;2022-08-25T05:17:16;101407.53;;;19.78;100.00
13367;BME280;6752;52.612;13.630;2022-08-25T05:22:18;101411.80;;;19.75;100.00
13367;BME280;6752;52.612;13.630;2022-08-25T05:27:21;101428.55;;;19.77;100.00
13367;BME280;6752;52.612;13.630;2022-08-25T05:32:23;101434.34;;;19.75;100.00
13367;BME280;6752;52.612;13.630;2022-08-25T05:37:25;101440.45;;;19.77;100.00
13367;BME280;6752;52.612;13.630;2022-08-25T05:42:27;101448.64;;;19.83;100.00
13367;BME280;6752;52.612;13.630;2022-08-25T05:47:30;101457.97;;;19.72;100.00
13367;BME280;6752;52.612;13.630;2022-08-25T05:52:32;101462.29;;;19.76;100.00
13367;BME280;6752;52.612;13.630;2022-08-25T05:57:34;101448.34;;;19.96;100.00
13367;BME280;6752;52.612;13.630;2022-08-25T06:02:37;101441.49;;;20.06;100.00
13367;BME280;6752;52.612;13.630;2022-08-25T06:07:43;101433.91;;;20.09;100.00
13367;BME280;6752;52.612;13.630;2022-08-25T06:12:45;101437.16;;;20.15;100.00
13367;BME280;6752;52.612;13.630;2022-08-25T06:17:50;101431.56;;;20.31;100.00
13367;BME280;6752;52.612;13.630;2022-08-25T06:22:49;101424.56;;;20.37;100.00
13367;BME280;6752;52.612;13.630;2022-08-25T06:27:52;101420.92;;;20.55;100.00
13367;BME280;6752;52.612;13.630;2022-08-25T06:32:54;101416.28;;;20.63;100.00
13367;BME280;6752;52.612;13.630;2022-08-25T06:37:56;101421.84;;;20.73;100.00
13367;BME280;6752;52.612;13.630;2022-08-25T06:42:59;101421.16;;;20.74;100.00
13367;BME280;6752;52.612;13.630;2022-08-25T06:48:01;101419.16;;;20.91;100.00
13367;BME280;6752;52.612;13.630;2022-08-25T06:53:04;101420.28;;;21.03;100.00
13367;BME280;6752;52.612;13.630;2022-08-25T06:58:06;101418.81;;;21.13;100.00
13367;BME280;6752;52.612;13.630;2022-08-25T07:03:08;101416.95;;;21.32;100.00
13367;BME280;6752;52.612;13.630;2022-08-25T07:08:11;101407.94;;;21.36;100.00
13367;BME280;6752;52.612;13.630;2022-08-25T07:13:13;101407.83;;;21.54;100.00
13367;BME280;6752;52.612;13.630;2022-08-25T07:18:15;101403.38;;;21.58;100.00
13367;BME280;6752;52.612;13.630;2022-08-25T07:23:18;101396.58;;;21.65;100.00
13367;BME280;6752;52.612;13.630;2022-08-25T07:28:21;101394.62;;;21.86;100.00
13367;BME280;6752;52.612;13.630;2022-08-25T07:33:23;101394.90;;;21.74;100.00
13367;BME280;6752;52.612;13.630;2022-08-25T07:38:25;101390.60;;;21.88;100.00
13367;BME280;6752;52.612;13.630;2022-08-25T07:43:27;101390.20;;;21.80;100.00
13367;BME280;6752;52.612;13.630;2022-08-25T07:48:29;101389.06;;;21.94;100.00
13367;BME280;6752;52.612;13.630;2022-08-25T07:53:31;101394.37;;;22.05;100.00
13367;BME280;6752;52.612;13.630;2022-08-25T07:58:33;101381.68;;;22.29;100.00
13367;BME280;6752;52.612;13.630;2022-08-25T08:03:36;101378.42;;;22.44;100.00
13367;BME280;6752;52.612;13.630;2022-08-25T08:08:39;101380.67;;;22.69;100.00
13367;BME280;6752;52.612;13.630;2022-08-25T08:13:41;101377.80;;;22.62;100.00
13367;BME280;6752;52.612;13.630;2022-08-25T08:18:43;101371.16;;;23.12;100.00
13367;BME280;6752;52.612;13.630;2022-08-25T08:23:46;101365.16;;;23.15;100.00
13367;BME280;6752;52.612;13.630;2022-08-25T08:28:48;101364.31;;;23.17;100.00
13367;BME280;6752;52.612;13.630;2022-08-25T08:33:50;101373.36;;;23.16;100.00
13367;BME280;6752;52.612;13.630;2022-08-25T08:38:53;101369.22;;;23.33;100.00
13367;BME280;6752;52.612;13.630;2022-08-25T08:49:10;101367.91;;;23.39;100.00
13367;BME280;6752;52.612;13.630;2022-08-25T08:54:12;101368.16;;;23.26;100.00
13367;BME280;6752;52.612;13.630;2022-08-25T08:59:25;101367.25;;;23.19;100.00
13367;BME280;6752;52.612;13.630;2022-08-25T09:04:34;101362.63;;;23.38;100.00
13367;BME280;6752;52.612;13.630;2022-08-25T09:09:34;101356.07;;;23.41;100.00
13367;BME280;6752;52.612;13.630;2022-08-25T09:20:28;101344.56;;;23.86;100.00
13367;BME280;6752;52.612;13.630;2022-08-25T09:30:46;101336.80;;;24.70;100.00
13367;BME280;6752;52.612;13.630;2022-08-25T09:35:43;101337.27;;;24.86;100.00
13367;BME280;6752;52.612;13.630;2022-08-25T09:40:46;101323.57;;;26.06;100.00
13367;BME280;6752;52.612;13.630;2022-08-25T09:45:49;101324.77;;;26.82;100.00
13367;BME280;6752;52.612;13.630;2022-08-25T09:50:50;101315.99;;;25.86;100.00
13367;BME280;6752;52.612;13.630;2022-08-25T09:55:53;101304.05;;;27.80;95.47
13367;BME280;6752;52.612;13.630;2022-08-25T10:01:01;101301.47;;;29.14;91.24
13367;BME280;6752;52.612;13.630;2022-08-25T10:06:04;101301.27;;;29.77;85.87
13367;BME280;6752;52.612;13.630;2022-08-25T10:11:08;101292.55;;;28.45;83.72
13367;BME280;6752;52.612;13.630;2022-08-25T10:16:09;101281.61;;;30.75;79.14
13367;BME280;6752;52.612;13.630;2022-08-25T10:21:10;101289.33;;;28.91;81.07
13367;BME280;6752;52.612;13.630;2022-08-25T10:26:25;101284.23;;;28.07;84.17
13367;BME280;6752;52.612;13.630;2022-08-25T10:31:25;101286.38;;;28.10;87.24
13367;BME280;6752;52.612;13.630;2022-08-25T10:41:53;101292.03;;;27.68;87.23
13367;BME280;6752;52.612;13.630;2022-08-25T10:46:52;101277.98;;;28.14;87.08
13367;BME280;6752;52.612;13.630;2022-08-25T10:52:22;101272.75;;;28.41;86.22
13367;BME280;6752;52.612;13.630;2022-08-25T11:08:23;101244.48;;;28.79;83.30
13367;BME280;6752;52.612;13.630;2022-08-25T11:13:34;101228.39;;;30.76;78.02
13367;BME280;6752;52.612;13.630;2022-08-25T11:18:32;101229.34;;;30.00;74.95
13367;BME280;6752;52.612;13.630;2022-08-25T11:33:54;101223.22;;;29.41;75.96
13367;BME280;6752;52.612;13.630;2022-08-25T11:39:03;101208.87;;;28.93;78.81
13367;BME280;6752;52.612;13.630;2022-08-25T11:44:08;101200.92;;;29.68;76.27
13367;BME280;6752;52.612;13.630;2022-08-25T11:54:38;101205.63;;;29.46;78.87
13367;BME280;6752;52.612;13.630;2022-08-25T12:04:51;101192.95;;;29.74;78.62
13367;BME280;6752;52.612;13.630;2022-08-25T12:15:12;101176.05;;;30.62;73.19
13367;BME280;6752;52.612;13.630;2022-08-25T12:19:59;101172.30;;;29.59;77.23
13367;BME280;6752;52.612;13.630;2022-08-25T12:25:05;101168.95;;;29.95;74.31
13367;BME280;6752;52.612;13.630;2022-08-25T12:40:33;101158.31;;;30.51;71.57
13367;BME280;6752;52.612;13.630;2022-08-25T12:45:35;101142.17;;;31.68;72.97
13367;BME280;6752;52.612;13.630;2022-08-25T12:50:40;101144.71;;;29.72;73.83
13367;BME280;6752;52.612;13.630;2022-08-25T12:55:45;101137.23;;;29.66;74.26
13367;BME280;6752;52.612;13.630;2022-08-25T13:06:24;101128.92;;;31.50;67.95
13367;BME280;6752;52.612;13.630;2022-08-25T13:11:40;101138.49;;;30.27;71.41
13367;BME280;6752;52.612;13.630;2022-08-25T13:16:50;101123.86;;;31.25;69.84
13367;BME280;6752;52.612;13.630;2022-08-25T13:21:43;101126.17;;;30.61;69.39
13367;BME280;6752;52.612;13.630;2022-08-25T13:26:45;101126.25;;;31.02;69.01
13367;BME280;6752;52.612;13.630;2022-08-25T13:32:01;101114.95;;;31.53;66.53
13367;BME280;6752;52.612;13.630;2022-08-25T13:37:09;101115.47;;;31.57;66.23
13367;BME280;6752;52.612;13.630;2022-08-25T13:42:28;101108.55;;;30.91;68.41
13367;BME280;6752;52.612;13.630;2022-08-25T13:47:32;101112.92;;;29.80;72.27
13367;BME280;6752;52.612;13.630;2022-08-25T13:52:32;101106.39;;;30.32;69.74
13367;BME280;6752;52.612;13.630;2022-08-25T13:57:35;101099.45;;;30.46;70.72
13367;BME280;6752;52.612;13.630;2022-08-25T14:07:52;101092.73;;;30.93;66.19
13367;BME280;6752;52.612;13.630;2022-08-25T14:13:06;101088.50;;;30.87;67.98
13367;BME280;6752;52.612;13.630;2022-08-25T14:23:05;101075.75;;;31.24;68.49
13367;BME280;6752;52.612;13.630;2022-08-25T14:28:09;101058.16;;;31.04;69.43
13367;BME280;6752;52.612;13.630;2022-08-25T14:33:09;101060.51;;;31.08;67.30
13367;BME280;6752;52.612;13.630;2022-08-25T14:38:12;101051.27;;;30.91;67.81
13367;BME280;6752;52.612;13.630;2022-08-25T14:43:14;101050.11;;;30.70;68.78
13367;BME280;6752;52.612;13.630;2022-08-25T14:48:19;101047.81;;;30.61;68.93
13367;BME280;6752;52.612;13.630;2022-08-25T14:53:19;101056.20;;;29.87;72.30
13367;BME280;6752;52.612;13.630;2022-08-25T14:58:21;101038.56;;;30.73;70.64
13367;BME280;6752;52.612;13.630;2022-08-25T15:03:37;101035.36;;;30.46;67.74
13367;BME280;6752;52.612;13.630;2022-08-25T15:08:33;101028.72;;;30.57;69.15
13367;BME280;6752;52.612;13.630;2022-08-25T15:13:53;101026.58;;;30.00;68.53
13367;BME280;6752;52.612;13.630;2022-08-25T15:18:55;101023.73;;;29.73;69.59
13367;BME280;6752;52.612;13.630;2022-08-25T15:23:58;101017.64;;;30.23;70.05
13367;BME280;6752;52.612;13.630;2022-08-25T15:29:00;101016.64;;;30.23;70.96
13367;BME280;6752;52.612;13.630;2022-08-25T15:34:03;101007.08;;;29.82;70.14
13367;BME280;6752;52.612;13.630;2022-08-25T15:39:05;101007.44;;;30.29;69.42
13367;BME280;6752;52.612;13.630;2022-08-25T15:44:07;101002.86;;;29.99;70.53
13367;BME280;6752;52.612;13.630;2022-08-25T15:49:10;101000.42;;;30.24;69.35
13367;BME280;6752;52.612;13.630;2022-08-25T15:54:12;100988.95;;;30.06;69.56
13367;BME280;6752;52.612;13.630;2022-08-25T15:59:14;100979.33;;;29.41;69.66
13367;BME280;6752;52.612;13.630;2022-08-25T16:04:17;100977.90;;;29.30;71.40
13367;BME280;6752;52.612;13.630;2022-08-25T16:09:19;100973.13;;;29.01;73.11
13367;BME280;6752;52.612;13.630;2022-08-25T16:14:21;100965.19;;;29.03;73.92
13367;BME280;6752;52.612;13.630;2022-08-25T16:19:24;100956.56;;;29.09;73.50
13367;BME280;6752;52.612;13.630;2022-08-25T16:24:25;100959.05;;;28.95;74.28
13367;BME280;6752;52.612;13.630;2022-08-25T16:29:27;100949.17;;;28.81;75.79
13367;BME280;6752;52.612;13.630;2022-08-25T16:34:30;100953.09;;;28.73;75.84
13367;BME280;6752;52.612;13.630;2022-08-25T16:39:32;100949.72;;;28.51;77.37
13367;BME280;6752;52.612;13.630;2022-08-25T16:44:34;100945.13;;;28.61;76.79
13367;BME280;6752;52.612;13.630;2022-08-25T16:49:37;100935.84;;;28.22;77.67
13367;BME280;6752;52.612;13.630;2022-08-25T16:54:39;100937.38;;;28.39;78.07
13367;BME280;6752;52.612;13.630;2022-08-25T16:59:59;100933.95;;;28.20;79.04
13367;BME280;6752;52.612;13.630;2022-08-25T17:05:02;100928.61;;;28.17;80.00
13367;BME280;6752;52.612;13.630;2022-08-25T17:10:04;100934.50;;;27.79;81.31
13367;BME280;6752;52.612;13.630;2022-08-25T17:15:06;100927.58;;;27.63;81.65
13367;BME280;6752;52.612;13.630;2022-08-25T17:20:09;100934.37;;;27.43;81.96
13367;BME280;6752;52.612;13.630;2022-08-25T17:25:11;100938.23;;;27.31;82.82
13367;BME280;6752;52.612;13.630;2022-08-25T17:30:14;100930.91;;;27.41;83.62
13367;BME280;6752;52.612;13.630;2022-08-25T17:35:16;100937.58;;;27.38;83.78
13367;BME280;6752;52.612;13.630;2022-08-25T17:40:18;100935.60;;;27.22;85.53
13367;BME280;6752;52.612;13.630;2022-08-25T17:45:20;100925.36;;;27.13;85.62
13367;BME280;6752;52.612;13.630;2022-08-25T17:50:23;100937.77;;;27.01;87.20
13367;BME280;6752;52.612;13.630;2022-08-25T17:55:25;100936.28;;;26.83;87.99
13367;BME280;6752;52.612;13.630;2022-08-25T18:00:28;100932.98;;;26.81;87.88
13367;BME280;6752;52.612;13.630;2022-08-25T18:05:30;100939.55;;;26.57;89.72
13367;BME280;6752;52.612;13.630;2022-08-25T18:10:32;100939.95;;;26.53;89.67
13367;BME280;6752;52.612;13.630;2022-08-25T18:15:34;100945.94;;;26.26;91.12
13367;BME280;6752;52.612;13.630;2022-08-25T18:20:37;100948.87;;;26.10;91.92
13367;BME280;6752;52.612;13.630;2022-08-25T18:25:39;100957.77;;;25.72;94.18
13367;BME280;6752;52.612;13.630;2022-08-25T18:30:41;100967.48;;;25.74;93.04
13367;BME280;6752;52.612;13.630;2022-08-25T18:35:43;100963.09;;;25.71;92.98
13367;BME280;6752;52.612;13.630;2022-08-25T18:40:46;100955.07;;;25.49;94.62
13367;BME280;6752;52.612;13.630;2022-08-25T18:45:48;100964.12;;;25.32;97.22
13367;BME280;6752;52.612;13.630;2022-08-25T18:50:51;100974.72;;;25.05;97.96
13367;BME280;6752;52.612;13.630;2022-08-25T18:55:53;100967.27;;;24.93;99.62
13367;BME280;6752;52.612;13.630;2022-08-25T19:00:55;100971.34;;;24.99;98.69
13367;BME280;6752;52.612;13.630;2022-08-25T19:05:58;100967.46;;;24.70;100.00
13367;BME280;6752;52.612;13.630;2022-08-25T19:11:00;100969.91;;;24.57;100.00
13367;BME280;6752;52.612;13.630;2022-08-25T19:16:12;100980.59;;;24.53;100.00
13367;BME280;6752;52.612;13.630;2022-08-25T19:21:09;100979.56;;;24.49;100.00
13367;BME280;6752;52.612;13.630;2022-08-25T19:26:11;100973.48;;;24.28;100.00
13367;BME280;6752;52.612;13.630;2022-08-25T19:31:14;100972.44;;;24.17;100.00
13367;BME280;6752;52.612;13.630;2022-08-25T19:36:17;100973.38;;;24.10;100.00
13367;BME280;6752;52.612;13.630;2022-08-25T19:41:20;100969.19;;;24.03;100.00
13367;BME280;6752;52.612;13.630;2022-08-25T19:46:21;100961.14;;;24.01;100.00
13367;BME280;6752;52.612;13.630;2022-08-25T19:51:23;100959.75;;;24.01;100.00
13367;BME280;6752;52.612;13.630;2022-08-25T19:56:26;100963.85;;;23.88;100.00
13367;BME280;6752;52.612;13.630;2022-08-25T20:01:28;100962.90;;;23.79;100.00
13367;BME280;6752;52.612;13.630;2022-08-25T20:06:31;100963.40;;;23.74;100.00
13367;BME280;6752;52.612;13.630;2022-08-25T20:11:33;100971.32;;;23.64;100.00
13367;BME280;6752;52.612;13.630;2022-08-25T20:16:36;100963.66;;;23.35;100.00
13367;BME280;6752;52.612;13.630;2022-08-25T20:21:38;100965.30;;;23.36;100.00
13367;BME280;6752;52.612;13.630;2022-08-25T20:26:39;100968.47;;;23.29;100.00
13367;BME280;6752;52.612;13.630;2022-08-25T20:31:42;100967.22;;;23.19;100.00
13367;BME280;6752;52.612;13.630;2022-08-25T20:36:44;100968.35;;;23.15;100.00
13367;BME280;6752;52.612;13.630;2022-08-25T20:41:47;100957.53;;;23.04;100.00
13367;BME280;6752;52.612;13.630;2022-08-25T20:46:49;100956.59;;;23.02;100.00
13367;BME280;6752;52.612;13.630;2022-08-25T20:51:51;100956.24;;;22.97;100.00
13367;BME280;6752;52.612;13.630;2022-08-25T20:56:55;100952.52;;;22.92;100.00
13367;BME280;6752;52.612;13.630;2022-08-25T21:01:58;100960.70;;;22.81;100.00
13367;BME280;6752;52.612;13.630;2022-08-25T21:07:00;100958.96;;;22.75;100.00
13367;BME280;6752;52.612;13.630;2022-08-25T21:12:02;100960.65;;;22.74;100.00
13367;BME280;6752;52.612;13.630;2022-08-25T21:17:05;100958.20;;;22.41;100.00
13367;BME280;6752;52.612;13.630;2022-08-25T21:22:07;100952.69;;;22.53;100.00
13367;BME280;6752;52.612;13.630;2022-08-25T21:27:09;100952.00;;;22.37;100.00
13367;BME280;6752;52.612;13.630;2022-08-25T21:32:12;100959.66;;;22.36;100.00
13367;BME280;6752;52.612;13.630;2022-08-25T21:37:14;100952.81;;;22.23;100.00
13367;BME280;6752;52.612;13.630;2022-08-25T21:42:18;100952.98;;;22.20;100.00
13367;BME280;6752;52.612;13.630;2022-08-25T21:47:19;100948.84;;;22.05;100.00
13367;BME280;6752;52.612;13.630;2022-08-25T21:52:21;100946.01;;;22.10;100.00
13367;BME280;6752;52.612;13.630;2022-08-25T21:57:24;100946.49;;;22.00;100.00
13367;BME280;6752;52.612;13.630;2022-08-25T22:02:26;100940.65;;;22.02;100.00
13367;BME280;6752;52.612;13.630;2022-08-25T22:07:28;100940.09;;;22.05;100.00
13367;BME280;6752;52.612;13.630;2022-08-25T22:12:31;100934.55;;;22.05;100.00
13367;BME280;6752;52.612;13.630;2022-08-25T22:17:33;100930.47;;;22.09;100.00
13367;BME280;6752;52.612;13.630;2022-08-25T22:22:35;100919.73;;;22.15;100.00
13367;BME280;6752;52.612;13.630;2022-08-25T22:27:37;100920.52;;;22.06;100.00
13367;BME280;6752;52.612;13.630;2022-08-25T22:32:40;100916.72;;;22.11;100.00
13367;BME280;6752;52.612;13.630;2022-08-25T22:37:42;100915.63;;;22.10;100.00
13367;BME280;6752;52.612;13.630;2022-08-25T22:42:45;100914.55;;;22.05;100.00
13367;BME280;6752;52.612;13.630;2022-08-25T22:47:47;100907.22;;;21.98;100.00
13367;BME280;6752;52.612;13.630;2022-08-25T22:52:49;100912.09;;;21.82;100.00
13367;BME280;6752;52.612;13.630;2022-08-25T22:57:52;100908.66;;;21.75;100.00
13367;BME280;6752;52.612;13.630;2022-08-25T23:02:54;100902.13;;;21.76;100.00
13367;BME280;6752;52.612;13.630;2022-08-25T23:07:56;100902.59;;;21.71;100.00
13367;BME280;6752;52.612;13.630;2022-08-25T23:12:59;100896.83;;;21.65;100.00
13367;BME280;6752;52.612;13.630;2022-08-25T23:18:01;100892.38;;;21.66;100.00
13367;BME280;6752;52.612;13.630;2022-08-25T23:23:03;100894.73;;;21.47;100.00
13367;BME280;6752;52.612;13.630;2022-08-25T23:28:06;100894.98;;;21.50;100.00
13367;BME280;6752;52.612;13.630;2022-08-25T23:33:09;100885.81;;;21.52;100.00
13367;BME280;6752;52.612;13.630;2022-08-25T23:38:11;100881.20;;;21.59;100.00
13367;BME280;6752;52.612;13.630;2022-08-25T23:43:13;100875.51;;;21.60;100.00
13367;BME280;6752;52.612;13.630;2022-08-25T23:48:15;100875.57;;;21.50;100.00
13367;BME280;6752;52.612;13.630;2022-08-25T23:53:18;100867.00;;;21.47;100.00
13367;BME280;6752;52.612;13.630;2022-08-25T23:58:20;100860.90;;;21.47;100.00
